Portada
METAR-TAF:

METAR-TAF

Aeroports :

Pella Municipal Airport

Pella, Iowa, Estats Units d'Amèrica

latitud: 41-24N, longitud: 092-56W, altitud: 270 m

Observació

L'informe es va fer fa 21 minuts, a les 07:15 UTC
Vent 4 kt del Oest
Temperatura 10°C
Humitat 93%
Pressió 1020 hPa
Visibilitat: 16.1 km
Cel clar

METAR: KPEA 260715Z AUTO 26004KT 10SM CLR 10/09 A3012 RMK AO2 T01000089

Hora: 02:36 (07:36 UTC)


TAF: manca

Observacions i pronòstics meteorològics de més de 4000 aeroports (METAR i TAF).

Les estacions disponibles són els punts grocs i vermells al mapa.

Posi el ratolí al punt desitjat per veure el nom de l'estació.

Feu clic per veure les observacions i els pronòstics meteorològics.

Per canviar el mapa: feu clic els botons verds amb una creu de color negre per apropar; al botó verd amb un guió per allunyar la imatge; o en les fletxes verdes per a mapes adjacents.


METAR-TAF: